Quick Links (Output Below):   Max & Min Temps   /   Climate Reports   /   Zone Forecasts
River Forecasts   /   Forestry Forecasts   /   Aviation Forecasts   /   Radars   /   Features

Terminal Aerodrome Forecast (Harrison)

Pick a Site:
Arkadelphia | El Dorado | Fayetteville | Fort Smith | Harrison | Highfill | Hot Springs | Jonesboro
Little Rock | Monticello | Mountain Home | Pine Bluff | Texarkana
 Forecast 

KHRO 011126Z 0112/0212 28003KT P6SM SKC
     FM011400 33005KT P6SM SCT250
     FM020000 26003KT P6SM SCT250=


 Latest METARs (Observations) 
How to Decode METARs
11Z KHRO 011053Z AUTO 00000KT 10SM CLR 18/16 A3011 RMK AO2 SLP180
         T01830156
         
10Z KHRO 010953Z AUTO 27004KT 10SM CLR 18/16 A3010 RMK AO2 SLP177
         T01780156
         
09Z KHRO 010853Z AUTO 25005KT 10SM CLR 18/16 A3010 RMK AO2 SLP177
         T01830161 56009
         
08Z KHRO 010753Z AUTO 00000KT 10SM CLR 19/17 A3010 RMK AO2 SLP178
         T01940167
         
07Z KHRO 010653Z AUTO 25003KT 10SM CLR 19/17 A3011 RMK AO2 SLP180
         T01940172
         
06Z KHRO 010553Z AUTO 27003KT 10SM CLR 20/17 A3013 RMK AO2 SLP186
         T02000172 10300 20200 403220167 50000
         
05Z KHRO 010453Z AUTO 25004KT 10SM CLR 21/17 A3014 RMK AO2 SLP190
         T02110172
         
04Z KHRO 010353Z AUTO 24004KT 10SM CLR 21/17 A3013 RMK AO2 SLP189
         T02110172
         
03Z KHRO 010253Z AUTO 27005KT 10SM CLR 22/19 A3013 RMK AO2 SLP186
         T02170189 53012
         
02Z KHRO 010153Z AUTO 26003KT 10SM CLR 23/19 A3011 RMK AO2 SLP181
         T02330194
         
***** Today's Observations (Above) *****


Back to Main Page
http://www.srh.noaa.gov/lzk/qfcst.php

USA.gov is the U.S. government's official web portal to all federal, state and local government web resources and services.